Time;durP1;ratioP1;P1;durP2;ratioP2;P2;SDS_P1;SDS_P2;PMS_P1;PMS_P2;Temp;Humidity;BMP_temperature;BMP_pressure;BME280_temperature;BME280_humidity;BME280_pressure;Samples;Min_cycle;Max_cycle;Signal;HPM_P1;HPM_P2
2022/06/22 00:00:12;;;;;;;;;;;13.30;99.90;;;;;;5084555;27;36740;-46
2022/06/22 00:02:42;;;;;;;;;;;13.30;99.90;;;;;;5085825;27;37032;-46
2022/06/22 00:05:15;;;;;;;;;;;13.30;99.90;;;;;;5086321;28;37110;-45
2022/06/22 00:07:45;;;;;;;;;;;13.20;99.90;;;;;;5085783;27;37388;-53
2022/06/22 00:10:15;;;;;;;;;;;13.20;99.90;;;;;;5086178;27;38422;-54
2022/06/22 00:12:43;;;;;;;;;;;13.10;99.90;;;;;;5085516;27;38586;-53
2022/06/22 00:15:20;;;;;;;;;;;13.10;99.90;;;;;;5085389;27;36380;-53
2022/06/22 00:17:49;;;;;;;;;;;13.10;99.90;;;;;;5084699;27;38913;-54
2022/06/22 00:20:21;;;;;;;;;;;13.10;99.90;;;;;;5084129;27;37902;-45
2022/06/22 00:22:50;;;;;;;;;;;13.10;99.90;;;;;;5085349;27;36944;-44
2022/06/22 00:25:21;;;;;;;;;;;13.10;99.90;;;;;;5085982;27;36919;-46
2022/06/22 00:27:48;;;;;;;;;;;13.00;99.90;;;;;;5085112;27;37608;-45
2022/06/22 00:30:27;;;;;;;;;;;13.00;99.90;;;;;;5085578;27;38016;-53
2022/06/22 00:33:00;;;;;;;;;;;12.90;99.90;;;;;;5086503;27;35924;-54
2022/06/22 00:35:42;;;;;;;;;;;12.90;99.90;;;;;;5085857;27;37551;-49
2022/06/22 00:38:13;;;;;;;;;;;12.90;99.90;;;;;;5089906;27;39761;-45
2022/06/22 00:40:40;;;;;;;;;;;12.90;99.90;;;;;;5087466;27;38910;-50
2022/06/22 00:43:08;;;;;;;;;;;12.90;99.90;;;;;;5087675;27;38275;-54
2022/06/22 00:45:35;;;;;;;;;;;12.80;99.90;;;;;;5086723;27;37597;-53
2022/06/22 00:48:07;;;;;;;;;;;12.80;99.90;;;;;;5087893;27;37203;-51
2022/06/22 00:50:38;;;;;;;;;;;12.70;99.90;;;;;;5087587;27;36575;-47
2022/06/22 00:53:12;;;;;;;;;;;12.70;99.90;;;;;;5088252;27;37846;-48
2022/06/22 00:55:40;;;;;;;;;;;12.60;99.90;;;;;;5087224;27;37070;-46
2022/06/22 00:58:11;;;;;;;;;;;12.60;99.90;;;;;;5089088;28;38420;-53
2022/06/22 01:00:40;;;;;;;;;;;12.60;99.90;;;;;;5088743;28;38032;-53
2022/06/22 01:03:17;;;;;;;;;;;12.60;99.90;;;;;;5089298;27;37639;-47
2022/06/22 01:05:50;;;;;;;;;;;12.50;99.90;;;;;;5087865;27;36858;-54
2022/06/22 01:08:19;;;;;;;;;;;12.50;99.90;;;;;;5088456;27;38776;-50
2022/06/22 01:10:51;;;;;;;;;;;12.40;99.90;;;;;;5089893;27;38028;-54
2022/06/22 01:13:19;;;;;;;;;;;12.40;99.90;;;;;;5085672;27;35536;-54
2022/06/22 01:15:48;;;;;;;;;;;12.40;99.90;;;;;;5087168;27;35320;-53
2022/06/22 01:18:20;;;;;;;;;;;12.40;99.90;;;;;;5087002;27;40147;-46
2022/06/22 01:20:55;;;;;;;;;;;12.30;99.90;;;;;;5088467;28;37738;-47
2022/06/22 01:23:45;;;;;;;;;;;12.30;99.90;;;;;;5088752;27;36910;-47
2022/06/22 01:26:29;;;;;;;;;;;12.30;99.90;;;;;;5089295;27;36561;-46
2022/06/22 01:29:00;;;;;;;;;;;12.20;99.90;;;;;;5088898;27;38403;-45
2022/06/22 01:31:28;;;;;;;;;;;12.10;99.90;;;;;;5087738;27;37725;-46
2022/06/22 01:33:55;;;;;;;;;;;12.10;99.90;;;;;;5088259;28;37698;-47
2022/06/22 01:36:24;;;;;;;;;;;12.00;99.90;;;;;;5087570;27;38379;-45
2022/06/22 01:38:51;;;;;;;;;;;12.00;99.90;;;;;;5088283;28;37848;-45
2022/06/22 01:41:27;;;;;;;;;;;11.90;99.90;;;;;;5088873;27;37720;-46
2022/06/22 01:43:57;;;;;;;;;;;11.90;99.90;;;;;;5087932;27;35874;-45
2022/06/22 01:46:35;;;;;;;;;;;11.80;99.90;;;;;;5086871;27;37001;-45
2022/06/22 01:49:04;;;;;;;;;;;11.90;99.90;;;;;;5087843;27;38397;-53
2022/06/22 01:51:33;;;;;;;;;;;11.90;99.90;;;;;;5087088;27;39348;-53
2022/06/22 01:54:04;;;;;;;;;;;11.80;99.90;;;;;;5087779;27;40054;-54
2022/06/22 01:56:34;;;;;;;;;;;11.90;99.90;;;;;;5087715;27;41535;-50
2022/06/22 01:59:04;;;;;;;;;;;11.80;99.90;;;;;;5089400;28;36622;-53
2022/06/22 02:01:38;;;;;;;;;;;11.80;99.90;;;;;;5088547;27;38612;-52
2022/06/22 02:04:14;;;;;;;;;;;11.80;99.90;;;;;;5086381;27;38532;-45
2022/06/22 02:09:35;;;;;;;;;;;11.90;99.90;;;;;;5087296;28;37746;-47
2022/06/22 02:12:26;;;;;;;;;;;11.90;99.90;;;;;;5087976;27;36749;-45
2022/06/22 02:14:57;;;;;;;;;;;11.90;99.90;;;;;;5087120;27;38552;-45
2022/06/22 02:17:28;;;;;;;;;;;11.90;99.90;;;;;;5086523;27;35007;-47
2022/06/22 02:20:13;;;;;;;;;;;12.00;99.90;;;;;;5088743;27;38554;-45
2022/06/22 02:22:40;;;;;;;;;;;12.00;99.90;;;;;;5087571;27;37970;-52
2022/06/22 02:25:08;;;;;;;;;;;11.90;99.90;;;;;;5086047;27;35966;-53
2022/06/22 02:27:35;;;;;;;;;;;11.90;99.90;;;;;;5088799;27;36059;-48
2022/06/22 02:30:02;;;;;;;;;;;11.80;99.90;;;;;;5086658;27;38613;-46
2022/06/22 02:32:31;;;;;;;;;;;11.90;99.90;;;;;;5087034;28;38347;-46
2022/06/22 02:34:59;;;;;;;;;;;11.80;99.90;;;;;;5086204;27;36980;-45
2022/06/22 02:37:29;;;;;;;;;;;11.80;99.90;;;;;;5086941;27;36313;-46
2022/06/22 02:39:57;;;;;;;;;;;11.80;99.90;;;;;;5087690;27;37684;-45
2022/06/22 02:45:15;;;;;;;;;;;11.80;99.90;;;;;;5025906;27;37853;-52
2022/06/22 02:47:47;;;;;;;;;;;11.80;99.90;;;;;;5086860;27;36195;-48
2022/06/22 02:50:18;;;;;;;;;;;11.80;99.90;;;;;;5087915;27;38348;-48
2022/06/22 02:52:46;;;;;;;;;;;11.90;99.90;;;;;;5087952;28;36596;-50
2022/06/22 02:55:15;;;;;;;;;;;11.80;99.90;;;;;;5085581;27;37800;-50
2022/06/22 02:57:46;;;;;;;;;;;11.80;99.90;;;;;;5086573;27;36600;-59
2022/06/22 03:00:13;;;;;;;;;;;11.80;99.90;;;;;;5086682;28;37752;-59
2022/06/22 03:02:41;;;;;;;;;;;11.80;99.90;;;;;;5084773;27;37839;-59
2022/06/22 03:05:10;;;;;;;;;;;11.80;99.90;;;;;;5087194;27;37899;-59
2022/06/22 03:07:39;;;;;;;;;;;11.80;99.90;;;;;;5086561;27;36174;-59
2022/06/22 03:10:07;;;;;;;;;;;11.90;99.90;;;;;;5087347;27;39172;-48
2022/06/22 03:12:34;;;;;;;;;;;11.90;99.90;;;;;;5087408;27;38620;-50
2022/06/22 03:15:03;;;;;;;;;;;11.90;99.90;;;;;;5084126;27;38113;-51
2022/06/22 03:17:32;;;;;;;;;;;12.00;99.90;;;;;;5086295;27;35055;-50
2022/06/22 03:20:01;;;;;;;;;;;12.00;99.90;;;;;;5086819;27;37626;-59
2022/06/22 03:22:31;;;;;;;;;;;12.10;99.90;;;;;;5087353;27;38915;-59
2022/06/22 03:25:01;;;;;;;;;;;12.10;99.90;;;;;;5087329;27;35858;-59
2022/06/22 03:27:30;;;;;;;;;;;12.10;99.90;;;;;;5087028;27;37035;-59
2022/06/22 03:29:58;;;;;;;;;;;12.00;99.90;;;;;;5086497;27;38198;-59
2022/06/22 03:32:27;;;;;;;;;;;12.00;99.90;;;;;;5086987;28;39609;-59
2022/06/22 03:35:02;;;;;;;;;;;11.90;99.90;;;;;;5085246;27;37100;-48
2022/06/22 03:37:32;;;;;;;;;;;11.90;99.90;;;;;;5086747;27;38567;-51
2022/06/22 03:40:01;;;;;;;;;;;11.90;99.90;;;;;;5085760;27;37567;-59
2022/06/22 03:42:30;;;;;;;;;;;11.90;99.90;;;;;;5085794;28;37674;-59
2022/06/22 03:45:01;;;;;;;;;;;11.90;99.90;;;;;;5086160;27;35955;-59
2022/06/22 03:47:31;;;;;;;;;;;11.80;99.90;;;;;;5085728;27;37059;-59
2022/06/22 03:50:01;;;;;;;;;;;11.80;99.90;;;;;;5087159;27;39189;-59
2022/06/22 03:52:37;;;;;;;;;;;11.80;99.90;;;;;;5087147;28;37982;-59
2022/06/22 03:55:07;;;;;;;;;;;11.70;99.90;;;;;;5084880;27;37275;-51
2022/06/22 03:57:36;;;;;;;;;;;11.70;99.90;;;;;;5084420;27;36056;-59
2022/06/22 04:00:05;;;;;;;;;;;11.70;99.90;;;;;;5084246;27;39287;-59
2022/06/22 04:02:32;;;;;;;;;;;11.80;99.90;;;;;;5084872;27;37513;-59
2022/06/22 04:05:00;;;;;;;;;;;11.70;99.90;;;;;;5085450;27;37843;-59
2022/06/22 04:07:32;;;;;;;;;;;11.80;99.90;;;;;;5084411;27;36595;-52
2022/06/22 04:10:00;;;;;;;;;;;11.80;99.90;;;;;;5083894;27;38710;-59
2022/06/22 04:12:30;;;;;;;;;;;11.90;99.90;;;;;;5083536;27;39008;-59
2022/06/22 04:15:01;;;;;;;;;;;12.00;99.90;;;;;;5083102;28;37533;-59
2022/06/22 04:17:32;;;;;;;;;;;12.00;99.90;;;;;;5085455;27;37229;-59
2022/06/22 04:20:02;;;;;;;;;;;12.00;99.90;;;;;;5086490;27;39288;-59
2022/06/22 04:22:31;;;;;;;;;;;12.10;99.90;;;;;;5086157;27;36875;-51
2022/06/22 04:25:00;;;;;;;;;;;12.20;99.90;;;;;;5085014;27;37365;-49
2022/06/22 04:27:29;;;;;;;;;;;12.30;99.90;;;;;;5084282;27;37345;-49
2022/06/22 04:29:59;;;;;;;;;;;12.30;99.90;;;;;;5084549;28;39257;-51
2022/06/22 04:32:29;;;;;;;;;;;12.40;99.90;;;;;;5087075;27;38153;-50
2022/06/22 04:34:59;;;;;;;;;;;12.50;99.90;;;;;;5083124;27;38096;-52
2022/06/22 04:37:29;;;;;;;;;;;12.50;99.90;;;;;;5086001;27;35237;-51
2022/06/22 04:40:01;;;;;;;;;;;12.60;99.90;;;;;;5085497;27;37875;-50
2022/06/22 04:42:30;;;;;;;;;;;12.60;99.90;;;;;;5085445;27;39278;-50
2022/06/22 04:44:57;;;;;;;;;;;12.80;99.90;;;;;;5084460;27;36652;-59
2022/06/22 04:47:26;;;;;;;;;;;12.80;99.90;;;;;;5085051;27;36192;-58
2022/06/22 04:49:56;;;;;;;;;;;12.90;99.90;;;;;;5085409;27;37653;-47
2022/06/22 04:52:25;;;;;;;;;;;13.00;99.90;;;;;;5085944;27;36890;-59
2022/06/22 04:54:54;;;;;;;;;;;13.10;99.90;;;;;;5085324;27;37068;-59
2022/06/22 04:57:22;;;;;;;;;;;13.20;99.90;;;;;;5084545;28;36293;-51
2022/06/22 04:59:51;;;;;;;;;;;13.20;99.90;;;;;;5085364;27;39322;-49
2022/06/22 05:02:21;;;;;;;;;;;13.30;99.90;;;;;;5085278;27;38443;-58
2022/06/22 05:04:49;;;;;;;;;;;13.40;99.90;;;;;;5085070;27;36399;-59
2022/06/22 05:07:23;;;;;;;;;;;13.60;99.90;;;;;;5083961;27;35988;-59
2022/06/22 05:09:53;;;;;;;;;;;13.60;99.90;;;;;;5084084;27;37069;-58
2022/06/22 05:12:22;;;;;;;;;;;13.70;99.90;;;;;;5084816;27;37843;-58
2022/06/22 05:14:51;;;;;;;;;;;13.90;99.90;;;;;;5082978;27;37604;-58
2022/06/22 05:17:20;;;;;;;;;;;14.00;99.90;;;;;;5085055;27;37631;-58
2022/06/22 05:19:50;;;;;;;;;;;14.10;99.90;;;;;;5085361;27;38385;-58
2022/06/22 05:22:18;;;;;;;;;;;14.30;99.90;;;;;;5087692;27;36700;-58
2022/06/22 05:24:47;;;;;;;;;;;14.40;99.90;;;;;;5089245;27;37298;-52
2022/06/22 05:27:18;;;;;;;;;;;14.60;99.90;;;;;;5087669;27;35187;-50
2022/06/22 05:29:46;;;;;;;;;;;14.70;99.90;;;;;;5087926;27;38227;-53
2022/06/22 05:32:16;;;;;;;;;;;14.90;99.90;;;;;;5086382;27;37262;-53
2022/06/22 05:34:44;;;;;;;;;;;15.00;99.90;;;;;;5085819;27;36020;-59
2022/06/22 05:37:13;;;;;;;;;;;15.10;99.90;;;;;;5088664;27;35193;-58
2022/06/22 05:39:41;;;;;;;;;;;15.20;99.90;;;;;;5086843;27;38322;-58
2022/06/22 05:42:09;;;;;;;;;;;15.30;99.90;;;;;;5087192;27;39524;-51
2022/06/22 05:44:36;;;;;;;;;;;15.40;99.90;;;;;;5088035;28;38802;-52
2022/06/22 05:47:04;;;;;;;;;;;15.50;99.90;;;;;;5086723;27;37687;-53
2022/06/22 05:49:35;;;;;;;;;;;15.70;99.90;;;;;;5086954;27;38642;-51
2022/06/22 05:52:05;;;;;;;;;;;15.80;99.90;;;;;;5088619;27;36695;-50
2022/06/22 05:54:35;;;;;;;;;;;15.90;99.90;;;;;;5087143;27;37445;-52
2022/06/22 05:57:08;;;;;;;;;;;16.00;99.90;;;;;;5088809;27;37066;-53
2022/06/22 05:59:38;;;;;;;;;;;16.10;99.90;;;;;;5088496;27;38115;-52
2022/06/22 06:02:06;;;;;;;;;;;16.30;99.90;;;;;;5088022;27;36712;-51
2022/06/22 06:04:38;;;;;;;;;;;16.40;99.90;;;;;;5088333;27;36034;-52
2022/06/22 06:07:08;;;;;;;;;;;16.60;99.90;;;;;;5088779;27;35163;-52
2022/06/22 06:09:35;;;;;;;;;;;16.60;99.90;;;;;;5088292;27;37462;-52
2022/06/22 06:12:04;;;;;;;;;;;16.70;99.90;;;;;;5086447;27;37798;-54
2022/06/22 06:14:33;;;;;;;;;;;16.80;99.90;;;;;;5086242;27;37492;-54
2022/06/22 06:17:05;;;;;;;;;;;16.80;99.90;;;;;;5083910;27;36586;-53
2022/06/22 06:19:35;;;;;;;;;;;16.80;99.90;;;;;;5084905;27;39295;-53
2022/06/22 06:22:05;;;;;;;;;;;17.10;99.90;;;;;;5084953;27;36731;-54
2022/06/22 06:24:34;;;;;;;;;;;17.30;99.90;;;;;;5084415;27;37110;-51
2022/06/22 06:29:50;;;;;;;;;;;17.70;99.90;;;;;;5086611;28;38242;-54
2022/06/22 06:32:23;;;;;;;;;;;17.90;99.90;;;;;;5086911;27;37734;-54
2022/06/22 06:34:54;;;;;;;;;;;18.00;99.90;;;;;;5085637;27;37886;-53
2022/06/22 06:37:25;;;;;;;;;;;18.00;99.90;;;;;;5083803;28;36450;-53
2022/06/22 06:39:53;;;;;;;;;;;18.00;99.90;;;;;;5086685;27;38642;-52
2022/06/22 06:42:24;;;;;;;;;;;18.00;99.90;;;;;;5087685;27;37620;-53
2022/06/22 06:44:52;;;;;;;;;;;18.10;99.90;;;;;;5087464;27;37100;-53
2022/06/22 06:47:24;;;;;;;;;;;18.30;99.90;;;;;;5087294;27;35609;-53
2022/06/22 06:49:54;;;;;;;;;;;18.40;99.90;;;;;;5085800;27;36391;-52
2022/06/22 06:52:27;;;;;;;;;;;18.40;99.70;;;;;;5086967;27;38784;-52
2022/06/22 06:54:58;;;;;;;;;;;18.40;99.50;;;;;;5085199;27;37193;-50
2022/06/22 06:57:25;;;;;;;;;;;18.40;99.90;;;;;;5085658;27;37121;-54
2022/06/22 06:59:53;;;;;;;;;;;18.60;99.90;;;;;;5086848;27;36574;-52
2022/06/22 07:02:25;;;;;;;;;;;18.60;99.90;;;;;;5086114;27;36749;-53
2022/06/22 07:04:52;;;;;;;;;;;18.80;99.90;;;;;;5086387;27;36213;-54
2022/06/22 07:07:24;;;;;;;;;;;18.90;99.90;;;;;;5086717;27;37073;-53
2022/06/22 07:09:54;;;;;;;;;;;18.90;99.30;;;;;;5085978;27;37203;-49
2022/06/22 07:12:26;;;;;;;;;;;19.00;99.40;;;;;;5086123;27;37868;-53
2022/06/22 07:14:54;;;;;;;;;;;19.10;99.10;;;;;;5085935;27;38072;-52
2022/06/22 07:17:22;;;;;;;;;;;19.00;99.40;;;;;;5085788;27;36246;-53
2022/06/22 07:19:53;;;;;;;;;;;19.00;97.70;;;;;;5086699;27;39399;-53
2022/06/22 07:22:22;;;;;;;;;;;19.00;97.80;;;;;;5085379;27;36520;-51
2022/06/22 07:24:51;;;;;;;;;;;19.00;97.70;;;;;;5086305;27;37010;-52
2022/06/22 07:27:24;;;;;;;;;;;19.00;98.50;;;;;;5085503;27;38950;-53
2022/06/22 07:29:55;;;;;;;;;;;19.20;97.80;;;;;;5085908;28;37129;-53
2022/06/22 07:32:26;;;;;;;;;;;19.20;98.10;;;;;;5086574;27;37268;-54
2022/06/22 07:34:58;;;;;;;;;;;19.20;98.20;;;;;;5085633;27;38490;-53
2022/06/22 07:37:27;;;;;;;;;;;19.40;97.60;;;;;;5087405;27;37186;-54
2022/06/22 07:39:56;;;;;;;;;;;19.50;97.60;;;;;;5086125;27;37023;-53
2022/06/22 07:42:25;;;;;;;;;;;19.50;95.40;;;;;;5086523;27;36927;-52
2022/06/22 07:44:52;;;;;;;;;;;19.50;96.50;;;;;;5085116;27;37953;-53
2022/06/22 07:47:25;;;;;;;;;;;19.50;96.40;;;;;;5086202;27;35883;-52
2022/06/22 07:49:54;;;;;;;;;;;19.70;96.40;;;;;;5085928;27;37522;-54
2022/06/22 07:52:24;;;;;;;;;;;19.60;97.00;;;;;;5085985;27;37988;-54
2022/06/22 07:54:53;;;;;;;;;;;19.80;95.90;;;;;;5085713;27;36913;-53
2022/06/22 07:57:22;;;;;;;;;;;19.80;93.50;;;;;;5086483;28;36202;-54
2022/06/22 07:59:53;;;;;;;;;;;19.80;92.60;;;;;;5086244;27;38381;-53
2022/06/22 08:02:21;;;;;;;;;;;19.70;95.40;;;;;;5086113;27;36683;-52
2022/06/22 08:04:52;;;;;;;;;;;19.80;94.20;;;;;;5086180;27;36039;-53
2022/06/22 08:07:21;;;;;;;;;;;19.90;95.30;;;;;;5085262;27;37642;-50
2022/06/22 08:09:51;;;;;;;;;;;20.00;95.20;;;;;;5084829;27;38061;-53
2022/06/22 08:12:21;;;;;;;;;;;20.10;94.50;;;;;;5084293;27;38918;-54
2022/06/22 08:14:49;;;;;;;;;;;20.00;93.50;;;;;;5085311;27;37540;-53
2022/06/22 08:17:20;;;;;;;;;;;20.10;94.80;;;;;;5085608;27;37389;-53
2022/06/22 08:19:47;;;;;;;;;;;20.20;92.70;;;;;;5085533;28;38714;-52
2022/06/22 08:22:14;;;;;;;;;;;20.20;92.20;;;;;;5084969;28;38008;-53
2022/06/22 08:24:45;;;;;;;;;;;20.20;91.70;;;;;;5086066;27;37786;-54
2022/06/22 08:27:15;;;;;;;;;;;20.20;90.80;;;;;;5084665;27;37859;-54
2022/06/22 08:29:42;;;;;;;;;;;20.20;90.60;;;;;;5083389;28;37162;-54
2022/06/22 08:32:12;;;;;;;;;;;20.10;92.10;;;;;;5082771;27;39363;-54
2022/06/22 08:34:42;;;;;;;;;;;20.20;91.80;;;;;;5083641;27;39411;-52
2022/06/22 08:37:13;;;;;;;;;;;20.20;93.80;;;;;;5084324;28;36152;-52
2022/06/22 08:39:42;;;;;;;;;;;20.30;95.40;;;;;;5084444;27;36357;-53
2022/06/22 08:42:18;;;;;;;;;;;20.50;92.30;;;;;;5084529;27;38478;-54
2022/06/22 08:44:52;;;;;;;;;;;20.50;92.20;;;;;;5085543;27;36935;-53
2022/06/22 08:47:31;;;;;;;;;;;20.60;93.60;;;;;;5085303;27;36339;-53
2022/06/22 08:50:14;;;;;;;;;;;20.70;92.90;;;;;;5085560;27;38811;-52
2022/06/22 08:52:46;;;;;;;;;;;20.70;92.10;;;;;;5086346;27;37746;-53
2022/06/22 08:55:25;;;;;;;;;;;20.80;93.60;;;;;;5085156;27;36234;-53
2022/06/22 08:57:59;;;;;;;;;;;21.00;92.10;;;;;;5086337;27;37008;-53
2022/06/22 09:00:29;;;;;;;;;;;21.10;92.80;;;;;;5086111;27;39321;-52
2022/06/22 09:03:04;;;;;;;;;;;21.00;88.30;;;;;;5086472;28;40977;-51
2022/06/22 09:05:45;;;;;;;;;;;21.10;91.80;;;;;;5088086;27;36111;-49
2022/06/22 09:08:22;;;;;;;;;;;21.30;93.70;;;;;;5087380;27;36540;-53
2022/06/22 09:10:59;;;;;;;;;;;21.50;93.00;;;;;;5088038;27;37860;-53
2022/06/22 09:13:42;;;;;;;;;;;21.50;92.00;;;;;;5087345;27;39046;-52
2022/06/22 09:16:16;;;;;;;;;;;21.50;90.50;;;;;;5087299;27;37248;-53
2022/06/22 09:18:50;;;;;;;;;;;21.60;92.90;;;;;;5087476;27;39404;-54
2022/06/22 09:21:23;;;;;;;;;;;21.60;90.00;;;;;;5088033;27;39084;-53
2022/06/22 09:23:58;;;;;;;;;;;21.50;86.80;;;;;;5087371;28;40700;-54
2022/06/22 09:26:34;;;;;;;;;;;21.50;92.60;;;;;;5087451;27;36645;-54
2022/06/22 09:29:02;;;;;;;;;;;21.70;92.40;;;;;;5087689;27;35245;-53
2022/06/22 09:31:56;;;;;;;;;;;21.90;87.40;;;;;;5088638;27;37590;-54
2022/06/22 09:34:30;;;;;;;;;;;22.00;90.10;;;;;;5089448;27;39273;-54
2022/06/22 09:37:10;;;;;;;;;;;22.10;90.80;;;;;;5088218;28;36054;-54
2022/06/22 09:39:52;;;;;;;;;;;22.10;89.30;;;;;;5088423;27;37198;-53
2022/06/22 09:42:34;;;;;;;;;;;22.00;90.10;;;;;;5086062;27;38335;-53
2022/06/22 09:45:11;;;;;;;;;;;22.00;86.70;;;;;;5087991;27;36711;-55
2022/06/22 09:47:43;;;;;;;;;;;21.90;88.70;;;;;;5087314;27;38549;-54
2022/06/22 09:50:32;;;;;;;;;;;21.80;83.90;;;;;;5087868;27;34961;-54
2022/06/22 09:53:17;;;;;;;;;;;21.80;86.70;;;;;;5089212;27;37839;-53
2022/06/22 09:59:07;;;;;;;;;;;22.00;91.00;;;;;;5088064;28;37366;-53
2022/06/22 10:01:40;;;;;;;;;;;22.10;88.40;;;;;;5087695;27;37484;-53
2022/06/22 10:04:28;;;;;;;;;;;21.90;83.70;;;;;;5086997;28;38589;-54
2022/06/22 10:07:03;;;;;;;;;;;21.60;83.00;;;;;;5088009;27;39411;-54
2022/06/22 10:09:39;;;;;;;;;;;21.30;83.90;;;;;;5087527;27;37045;-54
2022/06/22 10:12:13;;;;;;;;;;;21.20;87.30;;;;;;5087657;27;36837;-52
2022/06/22 10:14:48;;;;;;;;;;;21.50;92.00;;;;;;5086455;27;37917;-51
2022/06/22 10:17:26;;;;;;;;;;;21.70;90.40;;;;;;5087548;27;38824;-54
2022/06/22 10:20:00;;;;;;;;;;;21.90;91.10;;;;;;5088098;27;37309;-54
2022/06/22 10:22:38;;;;;;;;;;;22.10;89.70;;;;;;5087470;27;36597;-54
2022/06/22 10:25:24;;;;;;;;;;;22.20;90.20;;;;;;5085955;27;38097;-54
2022/06/22 10:28:03;;;;;;;;;;;22.30;87.30;;;;;;5086694;27;36620;-53
2022/06/22 10:30:37;;;;;;;;;;;22.30;90.10;;;;;;5085109;27;37192;-52
2022/06/22 10:33:12;;;;;;;;;;;22.10;86.00;;;;;;5085405;27;36274;-54
2022/06/22 10:35:49;;;;;;;;;;;22.00;87.60;;;;;;5085431;27;37593;-50
2022/06/22 10:38:23;;;;;;;;;;;22.00;90.00;;;;;;5086578;27;38790;-53
2022/06/22 10:46:38;;;;;;;;;;;22.20;91.10;;;;;;5086598;28;39796;-52
2022/06/22 10:49:16;;;;;;;;;;;22.40;90.40;;;;;;5087298;27;38759;-48
2022/06/22 10:51:54;;;;;;;;;;;22.60;88.00;;;;;;5087042;27;37785;-50
2022/06/22 10:54:25;;;;;;;;;;;22.70;90.40;;;;;;5087064;27;36949;-51
2022/06/22 10:57:18;;;;;;;;;;;22.80;90.90;;;;;;5087400;27;38046;-51
2022/06/22 10:59:55;;;;;;;;;;;22.70;85.80;;;;;;5060908;27;37569;-51
2022/06/22 11:02:37;;;;;;;;;;;22.80;83.40;;;;;;5086427;28;39021;-53
2022/06/22 11:05:24;;;;;;;;;;;22.80;85.60;;;;;;5086345;28;36248;-51
2022/06/22 11:07:58;;;;;;;;;;;22.80;86.30;;;;;;5086721;27;36609;-51
2022/06/22 11:10:32;;;;;;;;;;;22.80;85.80;;;;;;5087186;27;37464;-52
2022/06/22 11:13:07;;;;;;;;;;;22.70;84.20;;;;;;5086895;27;36351;-52
2022/06/22 11:15:52;;;;;;;;;;;22.60;87.40;;;;;;5086049;27;37752;-51
2022/06/22 11:18:36;;;;;;;;;;;22.70;83.80;;;;;;5085361;27;38019;-52
2022/06/22 11:21:13;;;;;;;;;;;22.60;84.40;;;;;;5086989;27;37808;-52
2022/06/22 11:23:46;;;;;;;;;;;22.70;89.60;;;;;;5086352;28;35924;-52
2022/06/22 11:32:12;;;;;;;;;;;22.80;85.90;;;;;;5088374;28;37822;-51
2022/06/22 11:34:57;;;;;;;;;;;22.90;83.00;;;;;;5084338;27;37178;-52
2022/06/22 11:37:31;;;;;;;;;;;22.80;86.70;;;;;;5085227;28;36027;-52
2022/06/22 11:40:05;;;;;;;;;;;22.80;83.80;;;;;;5084516;27;36430;-52
2022/06/22 11:42:40;;;;;;;;;;;22.60;83.80;;;;;;5084851;28;37677;-53
2022/06/22 11:48:13;;;;;;;;;;;22.20;86.50;;;;;;5084310;28;37223;-50
2022/06/22 11:50:49;;;;;;;;;;;22.10;88.20;;;;;;5083874;28;37999;-50
2022/06/22 11:53:23;;;;;;;;;;;22.30;90.50;;;;;;5084493;27;37806;-49
2022/06/22 11:55:52;;;;;;;;;;;22.30;91.60;;;;;;5085212;27;35984;-51
2022/06/22 11:58:37;;;;;;;;;;;22.40;91.40;;;;;;5084640;27;38015;-48
2022/06/22 12:01:18;;;;;;;;;;;22.40;90.90;;;;;;5086373;27;38414;-50
2022/06/22 12:04:03;;;;;;;;;;;22.50;91.20;;;;;;5084306;27;37744;-50
2022/06/22 12:06:50;;;;;;;;;;;22.60;91.70;;;;;;5086292;27;38505;-50
2022/06/22 12:09:24;;;;;;;;;;;22.70;92.20;;;;;;5086466;28;36511;-51
2022/06/22 12:11:57;;;;;;;;;;;22.80;92.40;;;;;;5086785;27;37871;-52
2022/06/22 12:17:28;;;;;;;;;;;22.80;87.40;;;;;;5084673;28;38840;-52
2022/06/22 12:19:59;;;;;;;;;;;22.70;91.20;;;;;;5085944;27;39587;-53
2022/06/22 12:22:34;;;;;;;;;;;22.70;91.10;;;;;;5087111;28;39444;-49
2022/06/22 12:25:15;;;;;;;;;;;22.70;90.50;;;;;;5083183;27;36730;-53
2022/06/22 12:27:43;;;;;;;;;;;22.60;90.80;;;;;;5081872;27;36335;-52
2022/06/22 12:30:18;;;;;;;;;;;22.50;90.20;;;;;;5082820;27;39194;-52
2022/06/22 12:32:49;;;;;;;;;;;22.50;90.80;;;;;;5083294;27;36426;-53
2022/06/22 12:35:18;;;;;;;;;;;22.40;90.40;;;;;;5084179;27;37264;-52
2022/06/22 12:37:50;;;;;;;;;;;22.40;90.90;;;;;;5084114;28;38079;-51
2022/06/22 12:40:20;;;;;;;;;;;22.30;90.20;;;;;;5083054;27;37281;-53
2022/06/22 12:42:54;;;;;;;;;;;22.30;90.60;;;;;;5082608;27;39575;-53
2022/06/22 12:45:28;;;;;;;;;;;22.40;91.70;;;;;;5084393;27;37842;-52
2022/06/22 12:48:13;;;;;;;;;;;22.40;92.00;;;;;;5085886;27;37457;-52
2022/06/22 12:50:50;;;;;;;;;;;22.40;91.90;;;;;;5085227;27;35224;-53
2022/06/22 12:53:21;;;;;;;;;;;22.40;91.10;;;;;;5085326;27;38610;-51
2022/06/22 12:55:50;;;;;;;;;;;22.40;91.50;;;;;;5086369;27;38746;-51
2022/06/22 12:58:19;;;;;;;;;;;22.40;90.30;;;;;;5082558;27;38223;-53
2022/06/22 13:00:46;;;;;;;;;;;22.30;90.10;;;;;;5085607;28;36350;-51
2022/06/22 13:03:16;;;;;;;;;;;22.30;88.70;;;;;;5086110;27;38844;-52
2022/06/22 13:05:43;;;;;;;;;;;22.30;91.40;;;;;;5085690;28;37374;-51
2022/06/22 13:08:12;;;;;;;;;;;22.30;92.10;;;;;;5086144;27;37886;-52
2022/06/22 13:10:42;;;;;;;;;;;22.30;91.20;;;;;;5084535;28;36442;-51
2022/06/22 13:13:11;;;;;;;;;;;22.20;90.60;;;;;;5085816;28;36603;-51
2022/06/22 13:15:40;;;;;;;;;;;22.20;90.20;;;;;;5086186;27;37497;-52
2022/06/22 13:18:11;;;;;;;;;;;22.10;91.00;;;;;;5085026;27;38470;-51
2022/06/22 13:20:46;;;;;;;;;;;22.10;90.80;;;;;;5085158;27;37663;-53
2022/06/22 13:23:18;;;;;;;;;;;22.00;91.80;;;;;;5086105;27;39491;-50
2022/06/22 13:25:49;;;;;;;;;;;22.00;92.20;;;;;;5084508;27;38308;-51
2022/06/22 13:28:18;;;;;;;;;;;22.00;91.80;;;;;;5086236;27;35985;-52
2022/06/22 13:30:48;;;;;;;;;;;21.90;92.20;;;;;;5084096;27;36197;-52
2022/06/22 13:33:17;;;;;;;;;;;21.90;92.80;;;;;;5086070;28;38823;-52
2022/06/22 13:35:47;;;;;;;;;;;21.90;93.40;;;;;;5086930;27;38290;-53
2022/06/22 13:38:29;;;;;;;;;;;21.90;95.10;;;;;;5085367;27;37880;-53
2022/06/22 13:41:02;;;;;;;;;;;21.90;93.70;;;;;;5083446;27;37212;-53
2022/06/22 13:43:40;;;;;;;;;;;21.90;93.40;;;;;;5088529;27;42698;-53
2022/06/22 13:46:23;;;;;;;;;;;21.80;94.20;;;;;;5087207;27;40490;-53
2022/06/22 13:48:54;;;;;;;;;;;21.70;94.70;;;;;;5089233;27;38976;-53
2022/06/22 13:51:34;;;;;;;;;;;21.70;95.40;;;;;;5089305;27;38184;-51
2022/06/22 13:54:13;;;;;;;;;;;21.60;94.30;;;;;;5087449;27;38319;-52
2022/06/22 13:56:49;;;;;;;;;;;21.50;94.60;;;;;;5090153;27;37958;-52
2022/06/22 13:59:19;;;;;;;;;;;21.50;95.70;;;;;;5089870;27;38101;-52
2022/06/22 14:01:51;;;;;;;;;;;21.40;95.60;;;;;;5088853;27;37415;-53
2022/06/22 14:04:22;;;;;;;;;;;21.40;96.10;;;;;;5088588;27;37987;-53
2022/06/22 14:06:53;;;;;;;;;;;21.40;95.60;;;;;;5088936;27;37822;-51
2022/06/22 14:09:24;;;;;;;;;;;21.30;96.30;;;;;;5088757;27;38378;-53
2022/06/22 14:11:56;;;;;;;;;;;21.30;96.60;;;;;;5089725;27;36115;-54
2022/06/22 14:14:26;;;;;;;;;;;21.30;96.30;;;;;;5089132;28;37467;-53
2022/06/22 14:16:56;;;;;;;;;;;21.30;97.00;;;;;;5088168;27;36643;-54
2022/06/22 14:19:25;;;;;;;;;;;21.20;95.70;;;;;;5087202;27;37960;-53
2022/06/22 14:21:54;;;;;;;;;;;21.10;96.10;;;;;;5086042;27;36026;-53
2022/06/22 14:24:23;;;;;;;;;;;21.10;97.40;;;;;;5087610;27;38190;-52
2022/06/22 14:27:05;;;;;;;;;;;21.20;97.20;;;;;;5088073;27;37396;-53
2022/06/22 14:29:40;;;;;;;;;;;21.20;95.90;;;;;;5087606;27;37058;-52
2022/06/22 14:32:14;;;;;;;;;;;21.10;96.30;;;;;;5084404;27;36960;-52
2022/06/22 14:34:54;;;;;;;;;;;21.10;96.40;;;;;;5085543;27;37608;-53
2022/06/22 14:37:23;;;;;;;;;;;21.00;95.80;;;;;;5087514;27;36739;-51
2022/06/22 14:39:53;;;;;;;;;;;21.00;95.00;;;;;;5087814;27;38796;-50
2022/06/22 14:42:22;;;;;;;;;;;20.90;95.50;;;;;;5088318;28;36630;-52
2022/06/22 14:44:57;;;;;;;;;;;20.80;95.80;;;;;;5087875;27;36442;-52
2022/06/22 14:47:27;;;;;;;;;;;20.80;96.40;;;;;;5078497;27;38028;-53
2022/06/22 14:50:01;;;;;;;;;;;20.80;97.00;;;;;;5085862;27;37039;-52
2022/06/22 14:52:37;;;;;;;;;;;20.80;95.80;;;;;;5087326;27;36603;-52
2022/06/22 14:55:08;;;;;;;;;;;20.80;95.80;;;;;;5086854;27;36474;-52
2022/06/22 14:57:38;;;;;;;;;;;20.70;95.50;;;;;;5086394;28;36686;-52
2022/06/22 15:00:17;;;;;;;;;;;20.60;96.80;;;;;;5084773;27;38769;-53
2022/06/22 15:02:47;;;;;;;;;;;20.60;96.90;;;;;;5085561;27;35962;-50
2022/06/22 15:05:18;;;;;;;;;;;20.60;96.80;;;;;;5084626;27;38345;-53
2022/06/22 15:07:50;;;;;;;;;;;20.60;95.70;;;;;;5085518;27;38888;-52
2022/06/22 15:10:20;;;;;;;;;;;20.60;96.50;;;;;;5085002;27;36041;-52
2022/06/22 15:12:58;;;;;;;;;;;20.50;95.70;;;;;;5086919;27;38587;-53